Time;durP1;ratioP1;P1;durP2;ratioP2;P2;SDS_P1;SDS_P2;PMS_P1;PMS_P2;Temp;Humidity;BMP_temperature;BMP_pressure;BME280_temperature;BME280_humidity;BME280_pressure;Samples;Min_cycle;Max_cycle;Signal;HPM_P1;HPM_P2
2021/03/18 00:01:34;;;;;;;9.03;4.10;;;3.30;85.30;;;;;;5072247;28;20733;-65
2021/03/18 00:04:00;;;;;;;11.43;4.50;;;3.30;85.20;;;;;;5072854;28;20722;-65
2021/03/18 00:06:26;;;;;;;10.93;4.10;;;3.30;85.30;;;;;;5072879;28;20405;-65
2021/03/18 00:08:52;;;;;;;9.00;4.60;;;3.20;85.40;;;;;;5072027;28;20465;-65
2021/03/18 00:11:19;;;;;;;8.33;3.60;;;3.20;85.60;;;;;;5073004;28;20444;-65
2021/03/18 00:13:46;;;;;;;11.97;4.20;;;3.20;85.60;;;;;;5072094;28;20045;-65
2021/03/18 00:16:12;;;;;;;8.47;3.50;;;3.20;85.60;;;;;;5072802;28;20386;-66
2021/03/18 00:18:49;;;;;;;8.60;3.83;;;3.20;85.60;;;;;;5073102;28;20298;-66
2021/03/18 00:21:16;;;;;;;7.60;3.70;;;3.20;85.60;;;;;;5071900;28;20294;-66
2021/03/18 00:23:42;;;;;;;7.47;3.77;;;3.10;85.60;;;;;;5072832;28;20344;-65
2021/03/18 00:26:09;;;;;;;11.67;4.10;;;3.20;85.70;;;;;;5072627;28;20401;-65
2021/03/18 00:28:35;;;;;;;7.43;3.73;;;3.20;85.90;;;;;;5072167;28;20044;-65
2021/03/18 00:31:02;;;;;;;9.83;3.57;;;3.20;85.90;;;;;;5072546;28;20839;-65
2021/03/18 00:33:28;;;;;;;11.40;3.70;;;3.20;85.90;;;;;;5072714;28;20072;-65
2021/03/18 00:35:54;;;;;;;8.67;3.63;;;3.20;85.90;;;;;;5071429;28;20388;-65
2021/03/18 00:38:21;;;;;;;8.40;3.60;;;3.10;85.80;;;;;;5072436;28;20048;-65
2021/03/18 00:40:55;;;;;;;9.27;3.50;;;3.10;85.90;;;;;;5072355;28;20305;-66
2021/03/18 00:43:22;;;;;;;9.67;3.90;;;3.20;85.90;;;;;;5071598;28;20294;-65
2021/03/18 00:45:48;;;;;;;11.80;4.67;;;3.20;85.90;;;;;;5071863;28;20394;-65
2021/03/18 00:48:17;;;;;;;9.20;4.70;;;3.20;85.90;;;;;;5072043;28;20727;-65
2021/03/18 00:50:51;;;;;;;9.47;3.97;;;3.20;85.90;;;;;;5071622;28;20339;-65
2021/03/18 00:53:23;;;;;;;12.63;4.73;;;3.20;86.00;;;;;;5071893;28;20302;-65
2021/03/18 00:55:53;;;;;;;7.75;3.83;;;3.30;86.00;;;;;;5071398;28;20440;-65
2021/03/18 00:58:20;;;;;;;9.30;5.20;;;3.30;85.80;;;;;;5071830;28;20456;-65
2021/03/18 01:00:49;;;;;;;11.17;4.20;;;3.30;86.00;;;;;;5071842;28;20307;-65
2021/03/18 01:03:16;;;;;;;7.27;3.77;;;3.30;85.80;;;;;;5071192;28;20291;-65
2021/03/18 01:05:52;;;;;;;8.83;3.40;;;3.30;85.80;;;;;;5071671;28;20799;-65
2021/03/18 01:08:24;;;;;;;10.20;3.40;;;3.30;85.90;;;;;;5072029;28;20662;-65
2021/03/18 01:10:51;;;;;;;;;;;3.30;85.90;;;;;;5071454;28;20295;-65
2021/03/18 01:13:19;;;;;;;7.57;3.17;;;3.30;86.40;;;;;;5071527;28;19920;-65
2021/03/18 01:15:47;;;;;;;6.77;2.93;;;3.30;85.90;;;;;;5071814;28;20302;-65
2021/03/18 01:18:14;;;;;;;10.47;3.70;;;3.30;85.80;;;;;;5070752;28;20656;-65
2021/03/18 01:20:40;;;;;;;9.83;3.37;;;3.40;85.80;;;;;;5071400;28;20791;-65
2021/03/18 01:23:05;;;;;;;8.00;3.03;;;3.40;85.80;;;;;;5071670;28;20306;-65
2021/03/18 01:25:31;;;;;;;10.20;4.17;;;3.40;85.90;;;;;;5070921;28;20055;-65
2021/03/18 01:27:57;;;;;;;8.90;3.73;;;3.40;86.00;;;;;;5070251;28;20052;-65
2021/03/18 01:30:24;;;;;;;9.07;3.70;;;3.40;86.10;;;;;;5071643;28;20064;-65
2021/03/18 01:32:50;;;;;;;10.27;3.90;;;3.40;86.20;;;;;;5070644;28;20553;-66
2021/03/18 01:35:20;;;;;;;10.90;3.63;;;3.40;86.20;;;;;;5071543;28;20290;-65
2021/03/18 01:37:47;;;;;;;11.23;3.50;;;3.40;86.30;;;;;;5071918;28;20286;-65
2021/03/18 01:40:21;;;;;;;10.47;3.37;;;3.50;86.30;;;;;;5070526;28;20721;-65
2021/03/18 01:42:47;;;;;;;10.97;4.03;;;3.50;86.30;;;;;;5071578;28;20299;-65
2021/03/18 01:45:14;;;;;;;17.43;5.53;;;3.40;86.30;;;;;;5070426;28;20794;-65
2021/03/18 01:47:41;;;;;;;16.53;5.23;;;3.40;86.40;;;;;;5071293;28;20123;-65
2021/03/18 01:50:09;;;;;;;15.63;4.90;;;3.40;86.50;;;;;;5071286;28;20314;-65
2021/03/18 01:52:36;;;;;;;7.57;3.10;;;3.40;87.50;;;;;;5070672;28;20856;-65
2021/03/18 01:55:02;;;;;;;9.43;4.00;;;3.40;86.60;;;;;;5070966;28;20373;-66
2021/03/18 01:57:28;;;;;;;10.37;5.20;;;3.40;86.60;;;;;;5071570;28;20303;-66
2021/03/18 01:59:55;;;;;;;7.77;3.03;;;3.30;86.60;;;;;;5070654;28;20778;-65
2021/03/18 02:02:21;;;;;;;11.10;4.20;;;3.30;86.80;;;;;;5071363;28;20044;-66
2021/03/18 02:04:46;;;;;;;10.83;4.00;;;3.40;86.90;;;;;;5071665;28;20302;-66
2021/03/18 02:07:12;;;;;;;13.23;4.57;;;3.40;86.80;;;;;;5074511;28;20052;-65
2021/03/18 02:09:38;;;;;;;10.10;4.00;;;3.40;86.50;;;;;;5075365;28;20076;-65
2021/03/18 02:12:04;;;;;;;15.03;5.70;;;3.50;86.60;;;;;;5075383;28;20040;-65
2021/03/18 02:14:30;;;;;;;7.40;4.43;;;3.50;86.50;;;;;;5074794;28;20040;-65
2021/03/18 02:17:01;;;;;;;10.50;4.67;;;3.50;86.50;;;;;;5075104;28;20040;-65
2021/03/18 02:20:15;;;;;;;11.82;3.75;;;3.50;86.50;;;;;;5075316;28;20057;-65
2021/03/18 02:23:09;;;;;;;8.13;4.03;;;3.50;86.50;;;;;;5075099;28;20048;-65
2021/03/18 02:25:46;;;;;;;7.13;4.43;;;3.40;86.50;;;;;;5075115;28;20346;-65
2021/03/18 02:28:58;;;;;;;9.73;3.90;;;3.40;86.50;;;;;;5074154;28;20777;-65
2021/03/18 02:32:06;;;;;;;8.20;3.33;;;3.50;86.70;;;;;;5074798;28;20625;-65
2021/03/18 02:35:07;;;;;;;8.80;3.77;;;3.50;86.50;;;;;;5074177;28;20299;-65
2021/03/18 02:37:39;;;;;;;9.77;4.07;;;3.50;86.50;;;;;;5074183;28;20306;-65
2021/03/18 02:40:12;;;;;;;8.93;4.00;;;3.50;86.50;;;;;;5074622;28;20053;-65
2021/03/18 02:42:40;;;;;;;8.43;3.97;;;3.50;86.50;;;;;;5073936;28;20299;-65
2021/03/18 02:45:07;;;;;;;9.80;3.80;;;3.50;86.50;;;;;;5074200;28;20322;-65
2021/03/18 02:47:35;;;;;;;7.03;3.83;;;3.50;86.50;;;;;;5074641;28;20866;-65
2021/03/18 02:50:01;;;;;;;13.57;3.53;;;3.50;86.50;;;;;;5073774;28;20643;-65
2021/03/18 02:52:29;;;;;;;7.83;3.97;;;3.50;87.40;;;;;;5074560;28;20356;-65
2021/03/18 02:55:01;;;;;;;9.27;3.50;;;3.40;86.50;;;;;;5074239;28;20845;-65
2021/03/18 02:57:29;;;;;;;11.70;4.30;;;3.40;86.60;;;;;;5073565;28;20787;-66
2021/03/18 02:59:57;;;;;;;8.30;3.60;;;3.40;86.60;;;;;;5074416;28;20048;-65
2021/03/18 03:02:27;;;;;;;9.73;3.90;;;3.40;86.70;;;;;;5073892;28;20333;-66
2021/03/18 03:04:55;;;;;;;8.50;3.93;;;3.30;86.70;;;;;;5074393;28;20291;-66
2021/03/18 03:07:23;;;;;;;9.07;4.00;;;3.40;86.80;;;;;;5074073;28;20315;-66
2021/03/18 03:09:50;;;;;;;10.00;4.57;;;3.40;86.60;;;;;;5073188;28;20854;-65
2021/03/18 03:12:18;;;;;;;9.97;4.37;;;3.40;86.50;;;;;;5073809;28;20295;-65
2021/03/18 03:14:46;;;;;;;8.07;3.17;;;3.30;86.50;;;;;;5074134;28;20291;-65
2021/03/18 03:17:15;;;;;;;18.87;7.03;;;3.30;86.60;;;;;;5073087;28;20294;-65
2021/03/18 03:19:44;;;;;;;21.60;9.57;;;3.30;86.50;;;;;;5073760;28;20768;-65
2021/03/18 03:22:10;;;;;;;21.23;9.60;;;3.30;86.70;;;;;;5073710;28;20765;-65
2021/03/18 03:24:37;;;;;;;19.17;9.43;;;3.20;86.70;;;;;;5073312;28;20778;-65
2021/03/18 03:27:05;;;;;;;17.23;7.50;;;3.20;86.70;;;;;;5073496;28;20317;-65
2021/03/18 03:29:33;;;;;;;10.40;6.33;;;3.20;86.70;;;;;;5074075;28;20326;-65
2021/03/18 03:31:59;;;;;;;11.13;5.23;;;3.10;86.90;;;;;;5073064;28;20310;-65
2021/03/18 03:34:25;;;;;;;11.67;4.57;;;3.10;87.00;;;;;;5073644;28;20299;-65
2021/03/18 03:36:51;;;;;;;9.03;3.97;;;3.00;87.00;;;;;;5073617;28;20377;-64
2021/03/18 03:39:17;;;;;;;8.50;4.80;;;3.00;87.00;;;;;;5072632;28;20712;-65
2021/03/18 03:41:43;;;;;;;11.07;4.43;;;3.00;87.00;;;;;;5073650;28;20319;-65
2021/03/18 03:44:09;;;;;;;11.83;4.80;;;3.00;87.20;;;;;;5073521;28;20374;-65
2021/03/18 03:46:35;;;;;;;11.07;4.17;;;3.00;87.30;;;;;;5072706;28;20453;-65
2021/03/18 03:49:03;;;;;;;14.50;5.50;;;3.00;87.30;;;;;;5073391;28;20056;-65
2021/03/18 03:51:38;;;;;;;9.40;3.93;;;3.10;87.30;;;;;;5073499;28;20067;-65
2021/03/18 03:54:09;;;;;;;8.53;4.27;;;3.10;87.30;;;;;;5073492;28;20298;-65
2021/03/18 03:56:44;;;;;;;5.33;4.07;;;3.10;87.20;;;;;;5073650;28;20299;-65
2021/03/18 03:59:16;;;;;;;8.43;4.50;;;3.10;87.30;;;;;;5072482;28;20352;-65
2021/03/18 04:01:50;;;;;;;11.48;4.82;;;3.10;87.30;;;;;;5073079;28;20382;-65
2021/03/18 04:04:22;;;;;;;8.20;4.60;;;3.10;87.30;;;;;;5072987;28;20459;-65
2021/03/18 04:06:54;;;;;;;11.40;4.63;;;3.10;87.20;;;;;;5072213;28;20810;-65
2021/03/18 04:09:22;;;;;;;8.80;4.77;;;3.20;87.30;;;;;;5073035;28;20295;-65
2021/03/18 04:11:49;;;;;;;10.07;3.80;;;3.10;87.30;;;;;;5072999;28;20306;-65
2021/03/18 04:14:18;;;;;;;8.43;5.00;;;3.20;87.70;;;;;;5072155;28;20291;-65
2021/03/18 04:16:46;;;;;;;10.40;4.07;;;3.20;87.30;;;;;;5072691;28;20707;-65
2021/03/18 04:19:17;;;;;;;8.93;4.57;;;3.20;87.30;;;;;;5072939;28;20299;-65
2021/03/18 04:21:47;;;;;;;14.03;4.53;;;3.30;87.30;;;;;;5071997;28;20374;-65
2021/03/18 04:24:14;;;;;;;5.97;3.63;;;3.30;87.20;;;;;;5072773;28;20063;-66
2021/03/18 04:26:41;;;;;;;7.50;3.70;;;3.40;87.10;;;;;;5072504;28;20315;-65
2021/03/18 04:29:08;;;;;;;7.97;4.17;;;3.40;87.00;;;;;;5071144;28;20361;-66
2021/03/18 04:31:37;;;;;;;8.60;4.60;;;3.40;87.10;;;;;;5072892;28;20298;-65
2021/03/18 04:34:04;;;;;;;7.47;4.50;;;3.40;87.00;;;;;;5071626;28;20291;-65
2021/03/18 04:36:31;;;;;;;6.63;4.33;;;3.40;87.10;;;;;;5072750;28;20389;-65
2021/03/18 04:38:58;;;;;;;10.20;4.53;;;3.40;87.10;;;;;;5072358;28;20302;-65
2021/03/18 04:41:26;;;;;;;9.03;4.00;;;3.40;87.20;;;;;;5071500;28;20347;-65
2021/03/18 04:43:53;;;;;;;6.57;3.60;;;3.40;87.30;;;;;;5072008;28;20287;-65
2021/03/18 04:46:19;;;;;;;11.33;4.33;;;3.40;87.30;;;;;;5072000;28;20310;-65
2021/03/18 04:48:46;;;;;;;8.87;4.10;;;3.40;87.50;;;;;;5071532;28;20374;-65
2021/03/18 04:51:12;;;;;;;8.67;4.70;;;3.40;87.60;;;;;;5072018;28;20783;-65
2021/03/18 04:53:39;;;;;;;8.73;4.90;;;3.40;87.70;;;;;;5072470;28;20363;-65
2021/03/18 04:56:09;;;;;;;14.23;4.77;;;3.30;87.80;;;;;;5071264;28;20303;-66
2021/03/18 04:58:37;;;;;;;11.33;4.40;;;3.40;87.90;;;;;;5072466;28;20290;-66
2021/03/18 05:01:05;;;;;;;9.97;4.80;;;3.40;88.00;;;;;;5071790;28;20326;-66
2021/03/18 05:03:33;;;;;;;10.70;4.83;;;3.40;88.00;;;;;;5071506;28;20317;-66
2021/03/18 05:06:03;;;;;;;11.43;4.30;;;3.40;88.00;;;;;;5071736;28;20706;-65
2021/03/18 05:08:31;;;;;;;7.90;4.30;;;3.50;88.10;;;;;;5072244;28;20298;-65
2021/03/18 05:10:57;;;;;;;7.13;4.50;;;3.50;88.00;;;;;;5070927;28;20352;-65
2021/03/18 05:13:25;;;;;;;7.93;4.20;;;3.50;88.00;;;;;;5071791;28;20309;-65
2021/03/18 05:15:51;;;;;;;8.23;4.00;;;3.50;87.90;;;;;;5071691;28;20331;-65
2021/03/18 05:18:18;;;;;;;10.40;4.10;;;3.50;87.90;;;;;;5070879;28;20297;-66
2021/03/18 05:20:45;;;;;;;7.23;3.77;;;3.60;88.80;;;;;;5071767;28;20290;-65
2021/03/18 05:23:13;;;;;;;13.20;4.60;;;3.60;87.90;;;;;;5070794;28;20787;-66
2021/03/18 05:25:39;;;;;;;15.67;4.73;;;3.60;87.90;;;;;;5071270;28;20794;-66
2021/03/18 05:28:06;;;;;;;10.83;4.57;;;3.60;87.90;;;;;;5071529;28;20303;-66
2021/03/18 05:30:33;;;;;;;7.70;4.77;;;3.60;88.10;;;;;;5071083;28;20052;-65
2021/03/18 05:33:01;;;;;;;7.87;3.90;;;3.70;88.10;;;;;;5071438;28;20611;-65
2021/03/18 05:35:27;;;;;;;6.07;4.00;;;3.70;88.10;;;;;;5071697;28;20318;-66
2021/03/18 05:37:53;;;;;;;6.27;3.50;;;3.80;88.10;;;;;;5070581;28;20294;-66
2021/03/18 05:40:21;;;;;;;14.87;4.60;;;3.90;88.00;;;;;;5070253;28;20647;-65
2021/03/18 05:42:48;;;;;;;8.40;4.37;;;3.90;87.90;;;;;;5071349;28;20295;-65
2021/03/18 05:45:15;;;;;;;7.57;4.37;;;3.90;88.00;;;;;;5070457;28;20313;-66
2021/03/18 05:47:41;;;;;;;10.50;5.27;;;4.00;88.00;;;;;;5071246;28;20414;-65
2021/03/18 05:50:19;;;;;;;6.47;3.40;;;4.10;87.90;;;;;;5071256;28;20298;-65
2021/03/18 05:52:45;;;;;;;12.93;3.87;;;4.10;87.80;;;;;;5070458;28;20700;-65
2021/03/18 05:55:12;;;;;;;7.33;4.30;;;4.10;87.80;;;;;;5071303;28;20298;-65
2021/03/18 05:57:40;;;;;;;8.07;3.60;;;4.10;87.80;;;;;;5071340;28;20668;-65
2021/03/18 06:00:08;;;;;;;7.57;4.10;;;4.20;87.70;;;;;;5070418;28;20301;-65
2021/03/18 06:02:35;;;;;;;8.53;3.40;;;4.10;87.70;;;;;;5071372;28;20658;-65
2021/03/18 06:05:10;;;;;;;6.80;3.60;;;4.20;87.80;;;;;;5071112;28;20299;-65
2021/03/18 06:07:40;;;;;;;8.23;3.97;;;4.20;87.90;;;;;;5070716;28;20307;-65
2021/03/18 06:10:08;;;;;;;9.10;3.83;;;4.20;87.90;;;;;;5071153;28;20325;-65
2021/03/18 06:12:37;;;;;;;6.43;3.83;;;4.30;87.90;;;;;;5070661;28;20341;-65
2021/03/18 06:15:10;;;;;;;11.23;4.57;;;4.30;87.90;;;;;;5070721;28;20330;-65
2021/03/18 06:17:37;;;;;;;9.90;4.60;;;4.30;87.80;;;;;;5071202;28;20291;-65
2021/03/18 06:20:18;;;;;;;9.83;3.97;;;4.30;87.90;;;;;;5069715;28;20667;-65
2021/03/18 06:22:49;;;;;;;10.73;4.63;;;4.40;88.00;;;;;;5071072;28;20061;-65
2021/03/18 06:25:41;;;;;;;10.48;4.07;;;4.40;88.10;;;;;;5070783;28;20912;-65
2021/03/18 06:28:27;;;;;;;9.43;4.43;;;4.40;88.00;;;;;;5069791;28;20068;-65
2021/03/18 06:30:57;;;;;;;8.40;3.80;;;4.40;88.10;;;;;;5070764;28;20049;-65
2021/03/18 06:33:25;;;;;;;12.53;4.30;;;4.50;88.00;;;;;;5070763;28;20309;-65
2021/03/18 06:35:51;;;;;;;11.13;5.07;;;4.50;87.80;;;;;;5070880;28;20301;-65
2021/03/18 06:38:24;;;;;;;8.37;3.97;;;4.50;87.90;;;;;;5070494;28;20287;-65
2021/03/18 06:40:50;;;;;;;8.77;4.10;;;4.50;88.00;;;;;;5070029;28;20652;-65
2021/03/18 06:43:15;;;;;;;10.23;4.70;;;4.50;88.10;;;;;;5070648;28;20356;-66
2021/03/18 06:45:43;;;;;;;10.80;4.83;;;4.50;88.10;;;;;;5070433;28;20496;-65
2021/03/18 06:48:15;;;;;;;9.50;4.33;;;4.50;88.20;;;;;;5069743;28;20049;-65
2021/03/18 06:50:46;;;;;;;10.23;4.80;;;4.50;88.40;;;;;;5070985;28;20306;-65
2021/03/18 06:53:24;;;;;;;10.30;4.30;;;4.50;88.40;;;;;;5074193;28;20287;-66
2021/03/18 06:55:51;;;;;;;6.70;4.77;;;4.60;88.50;;;;;;5073236;28;20045;-66
2021/03/18 06:58:26;;;;;;;8.97;4.57;;;4.60;88.70;;;;;;5073923;28;20299;-65
2021/03/18 07:01:00;;;;;;;7.47;4.47;;;4.60;88.80;;;;;;5072221;28;20317;-65
2021/03/18 07:03:31;;;;;;;10.03;4.43;;;4.70;88.90;;;;;;5070276;28;20299;-65
2021/03/18 07:05:58;;;;;;;8.57;4.87;;;4.80;88.90;;;;;;5073529;28;20319;-65
2021/03/18 07:08:40;;;;;;;9.13;4.30;;;4.80;88.80;;;;;;5071319;28;20299;-65
2021/03/18 07:11:18;;;;;;;10.57;4.43;;;4.90;88.80;;;;;;5073782;28;20402;-65
2021/03/18 07:13:44;;;;;;;10.57;5.07;;;5.00;88.70;;;;;;5073834;28;20302;-65
2021/03/18 07:16:11;;;;;;;9.50;4.10;;;5.10;88.70;;;;;;5073313;28;21052;-65
2021/03/18 07:18:38;;;;;;;9.83;4.93;;;5.10;88.70;;;;;;5074349;28;20386;-64
2021/03/18 07:21:13;;;;;;;9.13;4.33;;;5.20;88.70;;;;;;5073658;28;20356;-65
2021/03/18 07:23:48;;;;;;;6.53;3.87;;;5.20;88.70;;;;;;5072791;28;20291;-65
2021/03/18 07:26:22;;;;;;;7.93;4.87;;;5.30;88.60;;;;;;5073290;28;20811;-65
2021/03/18 07:28:50;;;;;;;9.00;5.03;;;5.40;88.80;;;;;;5073658;28;20356;-64
2021/03/18 07:31:17;;;;;;;9.17;5.07;;;5.40;88.70;;;;;;5072481;28;20378;-65
2021/03/18 07:33:43;;;;;;;12.03;4.93;;;5.40;88.80;;;;;;5073312;28;20670;-64
2021/03/18 07:36:11;;;;;;;10.37;4.90;;;5.50;88.80;;;;;;5073048;28;20291;-65
2021/03/18 07:38:38;;;;;;;11.47;5.53;;;5.50;88.90;;;;;;5072884;28;20634;-64
2021/03/18 07:41:10;;;;;;;14.37;4.70;;;5.50;88.80;;;;;;5073195;28;20334;-65
2021/03/18 07:43:37;;;;;;;10.17;5.07;;;5.50;88.80;;;;;;5073573;28;20303;-64
2021/03/18 07:46:04;;;;;;;12.03;4.77;;;5.50;88.90;;;;;;5071789;28;20811;-64
2021/03/18 07:48:31;;;;;;;10.73;4.50;;;5.60;88.90;;;;;;5073345;28;20302;-64
2021/03/18 07:50:59;;;;;;;7.63;4.23;;;5.70;89.00;;;;;;5072367;28;20342;-66
2021/03/18 07:53:25;;;;;;;11.87;5.00;;;5.70;88.80;;;;;;5072990;28;20301;-65
2021/03/18 07:55:52;;;;;;;10.53;5.10;;;5.80;88.70;;;;;;5073125;28;20378;-65
2021/03/18 07:58:45;;;;;;;14.87;5.20;;;5.90;88.60;;;;;;5072243;28;20783;-65
2021/03/18 08:01:29;;;;;;;10.33;4.50;;;6.00;88.70;;;;;;5072929;28;20286;-65
2021/03/18 08:03:55;;;;;;;9.43;4.90;;;6.10;88.60;;;;;;5071697;28;20302;-65
2021/03/18 08:06:39;;;;;;;10.57;4.07;;;6.10;88.40;;;;;;5071950;28;20314;-65
2021/03/18 08:09:23;;;;;;;13.17;5.20;;;6.20;88.50;;;;;;5072623;28;20798;-65
2021/03/18 08:11:49;;;;;;;13.53;5.10;;;6.20;88.20;;;;;;5072626;28;20337;-65
2021/03/18 08:14:22;;;;;;;10.60;4.43;;;6.30;88.10;;;;;;5071904;28;20336;-65
2021/03/18 08:16:48;;;;;;;14.37;5.07;;;6.30;88.10;;;;;;5072839;28;20080;-65
2021/03/18 08:19:16;;;;;;;9.33;5.13;;;6.30;88.20;;;;;;5071778;28;20345;-65
2021/03/18 08:21:47;;;;;;;12.60;4.67;;;6.30;88.20;;;;;;5072527;28;20553;-65
2021/03/18 08:24:17;;;;;;;9.60;3.90;;;6.30;88.20;;;;;;5072544;28;20310;-65
2021/03/18 08:26:47;;;;;;;14.37;5.03;;;6.30;88.00;;;;;;5071384;28;20105;-65
2021/03/18 08:29:47;;;;;;;8.97;4.83;;;6.30;88.10;;;;;;5072599;28;20307;-64
2021/03/18 08:32:30;;;;;;;13.70;5.07;;;6.40;88.10;;;;;;5071017;28;20308;-64
2021/03/18 08:34:57;;;;;;;13.70;4.00;;;6.50;88.20;;;;;;5071453;28;20302;-64
2021/03/18 08:37:38;;;;;;;11.43;5.20;;;6.50;88.00;;;;;;5072119;28;20308;-65
2021/03/18 08:40:48;;;;;;;8.75;4.53;;;6.50;87.90;;;;;;5071651;28;20353;-65
2021/03/18 08:43:12;;;;;;;7.03;3.30;;;6.60;87.90;;;;;;5071608;28;20048;-65
2021/03/18 08:45:39;;;;;;;16.00;4.87;;;6.50;87.80;;;;;;5071981;28;20718;-65
2021/03/18 08:48:11;;;;;;;14.53;4.80;;;6.60;87.80;;;;;;5071393;28;20435;-65
2021/03/18 08:50:37;;;;;;;9.93;3.80;;;6.60;87.90;;;;;;5072414;28;20299;-65
2021/03/18 08:53:23;;;;;;;11.50;4.80;;;6.70;87.80;;;;;;5070799;28;20482;-65
2021/03/18 08:55:49;;;;;;;9.87;3.97;;;6.70;87.60;;;;;;5071258;28;20106;-65
2021/03/18 08:58:15;;;;;;;10.33;4.43;;;6.80;87.50;;;;;;5072251;28;20314;-65
2021/03/18 09:00:42;;;;;;;12.00;4.40;;;6.80;87.70;;;;;;5071951;28;20302;-65
2021/03/18 09:03:14;;;;;;;12.67;4.03;;;7.00;87.80;;;;;;5071096;28;20381;-65
2021/03/18 09:05:57;;;;;;;8.68;4.53;;;7.10;87.70;;;;;;5071487;28;20767;-65
2021/03/18 09:08:26;;;;;;;6.37;3.30;;;7.10;87.60;;;;;;5071008;28;20048;-65
2021/03/18 09:10:52;;;;;;;16.33;5.60;;;7.00;87.50;;;;;;5071320;28;20299;-65
2021/03/18 09:13:21;;;;;;;11.83;4.17;;;7.20;87.60;;;;;;5071680;28;20709;-65
2021/03/18 09:15:49;;;;;;;17.23;4.57;;;7.20;87.20;;;;;;5070766;28;20359;-65
2021/03/18 09:18:20;;;;;;;12.47;3.63;;;7.30;86.90;;;;;;5071580;28;20341;-65
2021/03/18 09:20:53;;;;;;;11.38;4.13;;;7.40;86.50;;;;;;5071445;28;20303;-64
2021/03/18 09:23:21;;;;;;;10.23;3.50;;;7.50;86.50;;;;;;5070866;28;20045;-65
2021/03/18 09:25:49;;;;;;;12.43;4.63;;;7.40;86.30;;;;;;5071666;28;20706;-64
2021/03/18 09:28:16;;;;;;;10.70;4.10;;;7.50;86.40;;;;;;5071434;28;20649;-64
2021/03/18 09:30:45;;;;;;;8.17;2.50;;;7.60;86.20;;;;;;5070691;28;20303;-65
2021/03/18 09:33:20;;;;;;;11.00;4.07;;;7.70;85.90;;;;;;5071247;28;20351;-64
2021/03/18 09:35:46;;;;;;;8.23;3.23;;;7.80;85.30;;;;;;5071582;28;20339;-65
2021/03/18 09:38:17;;;;;;;14.20;3.87;;;7.90;85.10;;;;;;5070725;28;20406;-64
2021/03/18 09:40:44;;;;;;;13.87;4.03;;;8.00;84.80;;;;;;5071219;28;20377;-65
2021/03/18 09:43:10;;;;;;;15.77;3.80;;;8.10;84.20;;;;;;5071316;28;20299;-64
2021/03/18 09:45:36;;;;;;;17.87;4.17;;;8.10;83.90;;;;;;5070857;28;20295;-65
2021/03/18 09:48:02;;;;;;;18.33;4.23;;;8.10;83.90;;;;;;5070565;28;20608;-65
2021/03/18 09:50:30;;;;;;;16.57;5.83;;;8.10;83.60;;;;;;5070371;28;20052;-64
2021/03/18 09:53:07;;;;;;;13.80;4.83;;;8.10;83.70;;;;;;5071124;28;20055;-65
2021/03/18 09:55:33;;;;;;;13.83;4.13;;;8.10;83.70;;;;;;5071563;28;20299;-65
2021/03/18 09:58:07;;;;;;;12.70;4.50;;;8.10;83.40;;;;;;5070380;28;20309;-65
2021/03/18 10:00:33;;;;;;;9.17;3.17;;;8.20;83.00;;;;;;5071292;28;20146;-65
2021/03/18 10:03:00;;;;;;;11.57;4.67;;;8.20;83.20;;;;;;5071300;28;20352;-65
2021/03/18 10:05:26;;;;;;;12.70;4.07;;;8.30;82.90;;;;;;5070238;28;20822;-64
2021/03/18 10:07:55;;;;;;;15.13;6.40;;;8.40;82.70;;;;;;5070985;28;20342;-65
2021/03/18 10:10:21;;;;;;;24.70;9.83;;;8.40;82.30;;;;;;5070761;28;20048;-65
2021/03/18 10:12:50;;;;;;;18.67;4.97;;;8.20;81.60;;;;;;5070153;28;20352;-65
2021/03/18 10:15:17;;;;;;;14.87;4.13;;;8.00;82.40;;;;;;5070964;28;20048;-65
2021/03/18 10:17:44;;;;;;;19.23;7.07;;;8.00;83.10;;;;;;5070888;28;20344;-65
2021/03/18 10:20:32;;;;;;;14.13;4.53;;;8.00;82.70;;;;;;5069950;28;20301;-65
2021/03/18 10:23:07;;;;;;;15.87;5.50;;;8.00;82.80;;;;;;5070857;28;20834;-65
2021/03/18 10:25:38;;;;;;;17.10;5.43;;;8.00;82.90;;;;;;5070486;28;20724;-65
2021/03/18 10:28:10;;;;;;;14.52;5.85;;;8.10;82.60;;;;;;5074976;28;20325;-65
2021/03/18 10:30:46;;;;;;;;;;;8.00;82.30;;;;;;5075574;28;20044;-65
2021/03/18 10:33:20;;;;;;;12.73;5.70;;;7.90;82.10;;;;;;5074039;28;19947;-65
2021/03/18 10:35:58;;;;;;;13.77;3.57;;;7.90;82.40;;;;;;5074457;28;20806;-65
2021/03/18 10:38:29;;;;;;;15.90;5.37;;;7.80;80.60;;;;;;5074285;28;20294;-65
2021/03/18 10:40:56;;;;;;;15.70;4.82;;;7.70;81.10;;;;;;5072676;28;20783;-66
2021/03/18 10:43:26;;;;;;;11.80;5.57;;;7.80;81.30;;;;;;5073769;28;20127;-65
2021/03/18 10:45:54;;;;;;;11.07;3.37;;;7.90;80.60;;;;;;5073312;28;20790;-65
2021/03/18 10:48:23;;;;;;;12.03;3.00;;;7.90;79.30;;;;;;5073177;28;20303;-65
2021/03/18 10:50:50;;;;;;;10.17;2.47;;;7.90;78.50;;;;;;5074116;28;20297;-65
2021/03/18 10:53:16;;;;;;;9.27;2.40;;;7.90;77.80;;;;;;5071309;28;20299;-65
2021/03/18 10:55:47;;;;;;;11.27;3.87;;;7.80;77.40;;;;;;5073396;28;20302;-64
2021/03/18 10:58:22;;;;;;;13.40;5.10;;;7.70;77.40;;;;;;5074093;28;20068;-64
2021/03/18 11:01:06;;;;;;;10.70;2.60;;;7.80;77.60;;;;;;5070258;28;20417;-65
2021/03/18 11:03:35;;;;;;;9.73;2.30;;;7.80;76.20;;;;;;5071618;28;20743;-64
2021/03/18 11:06:18;;;;;;;8.60;2.10;;;7.70;76.10;;;;;;5071879;28;20329;-65
2021/03/18 11:08:49;;;;;;;10.73;3.83;;;7.70;75.60;;;;;;5073497;28;20295;-65
2021/03/18 11:11:25;;;;;;;8.07;2.00;;;7.60;76.50;;;;;;5073945;28;20800;-65
2021/03/18 11:13:52;;;;;;;11.73;3.57;;;7.60;76.50;;;;;;5073942;28;20048;-65
2021/03/18 11:16:22;;;;;;;14.67;4.07;;;7.60;76.60;;;;;;5073191;28;20305;-65
2021/03/18 11:18:49;;;;;;;9.37;2.97;;;7.50;76.70;;;;;;5073496;28;20305;-65
2021/03/18 11:21:20;;;;;;;10.00;2.53;;;7.60;77.00;;;;;;5073723;28;20340;-65
2021/03/18 11:23:48;;;;;;;12.10;5.80;;;7.50;76.30;;;;;;5072699;28;20303;-66
2021/03/18 11:26:16;;;;;;;7.30;2.40;;;7.40;76.70;;;;;;5073572;28;20053;-65
2021/03/18 11:28:53;;;;;;;10.43;2.57;;;7.40;76.40;;;;;;5073654;28;20299;-66
2021/03/18 11:31:21;;;;;;;10.60;3.17;;;7.30;76.70;;;;;;5073910;28;20671;-66
2021/03/18 11:33:47;;;;;;;8.27;2.60;;;7.20;77.10;;;;;;5073312;28;20291;-66
2021/03/18 11:36:13;;;;;;;8.33;2.37;;;7.20;77.20;;;;;;5072704;28;20305;-67
2021/03/18 11:38:39;;;;;;;7.87;2.27;;;7.10;77.40;;;;;;5072455;28;20767;-66
2021/03/18 11:41:05;;;;;;;7.83;2.30;;;7.10;78.50;;;;;;5073524;28;20290;-67
2021/03/18 11:43:31;;;;;;;15.00;2.60;;;7.00;78.40;;;;;;5072861;28;20338;-66
2021/03/18 11:45:57;;;;;;;12.37;2.83;;;6.90;78.50;;;;;;5072959;28;20079;-66
2021/03/18 11:48:23;;;;;;;13.03;3.30;;;6.90;78.90;;;;;;5073567;28;20436;-66
2021/03/18 11:50:49;;;;;;;10.60;2.33;;;7.00;79.00;;;;;;5072134;28;20303;-67
2021/03/18 11:53:15;;;;;;;9.87;2.80;;;7.00;79.30;;;;;;5072944;28;20360;-66
2021/03/18 11:55:41;;;;;;;8.77;3.10;;;7.10;79.60;;;;;;5073049;28;20394;-66
2021/03/18 11:58:08;;;;;;;11.47;3.60;;;7.10;80.60;;;;;;5072552;28;20310;-66
2021/03/18 12:00:39;;;;;;;11.07;2.90;;;7.10;79.90;;;;;;5073219;28;20322;-66
2021/03/18 12:03:06;;;;;;;12.18;2.47;;;7.10;79.80;;;;;;5073051;28;20301;-66
2021/03/18 12:05:33;;;;;;;10.07;2.80;;;6.90;79.80;;;;;;5072425;28;20052;-66
2021/03/18 12:07:59;;;;;;;10.43;3.73;;;6.90;80.60;;;;;;5072905;28;20383;-66
2021/03/18 12:10:24;;;;;;;10.40;3.30;;;6.90;80.90;;;;;;5072633;28;20048;-67
2021/03/18 12:12:50;;;;;;;14.87;3.30;;;6.90;81.10;;;;;;5072122;28;20059;-68
2021/03/18 12:15:16;;;;;;;15.90;2.90;;;6.90;81.20;;;;;;5072677;28;20114;-67
2021/03/18 12:17:43;;;;;;;10.17;2.70;;;7.00;81.00;;;;;;5072281;28;20128;-67
2021/03/18 12:20:12;;;;;;;11.47;2.40;;;7.00;80.80;;;;;;5071773;28;20321;-67
2021/03/18 12:22:38;;;;;;;9.53;2.90;;;7.00;80.90;;;;;;5073106;28;20394;-67
2021/03/18 12:25:06;;;;;;;11.27;3.10;;;7.00;81.30;;;;;;5071852;28;20323;-68
2021/03/18 12:27:32;;;;;;;8.17;2.27;;;7.10;81.70;;;;;;5082505;28;20436;-66
2021/03/18 12:29:58;;;;;;;8.93;2.33;;;7.20;81.50;;;;;;5088107;28;20290;-65
2021/03/18 12:32:24;;;;;;;9.30;2.90;;;7.30;80.50;;;;;;5088356;28;20345;-68
2021/03/18 12:34:50;;;;;;;4.80;2.53;;;7.30;80.60;;;;;;5088900;28;20356;-70
2021/03/18 12:37:17;;;;;;;9.77;2.37;;;7.50;80.70;;;;;;5089492;28;20044;-70
2021/03/18 12:39:46;;;;;;;9.87;2.03;;;7.70;80.10;;;;;;5088403;28;21179;-69
2021/03/18 12:42:12;;;;;;;7.03;2.13;;;7.90;79.80;;;;;;5088933;28;20298;-69
2021/03/18 12:44:40;;;;;;;8.50;1.90;;;8.10;79.00;;;;;;5089108;28;20830;-69
2021/03/18 12:47:07;;;;;;;8.23;1.90;;;8.30;79.30;;;;;;5088756;28;20060;-68
2021/03/18 12:49:33;;;;;;;8.77;2.10;;;8.30;78.10;;;;;;5088546;28;20761;-69
2021/03/18 12:51:58;;;;;;;6.23;1.97;;;8.40;77.60;;;;;;5088621;28;20428;-69
2021/03/18 12:54:24;;;;;;;7.83;2.40;;;8.40;78.50;;;;;;5088674;28;20382;-68
2021/03/18 12:56:50;;;;;;;9.73;2.40;;;8.50;77.60;;;;;;5088515;28;20075;-69
2021/03/18 12:59:17;;;;;;;9.13;2.37;;;8.50;77.30;;;;;;5088823;28;20051;-68
2021/03/18 13:01:42;;;;;;;7.40;2.50;;;8.40;78.20;;;;;;5087747;28;20122;-68
2021/03/18 13:04:08;;;;;;;6.90;2.10;;;8.40;77.40;;;;;;5088429;28;20770;-69
2021/03/18 13:06:36;;;;;;;13.13;2.70;;;8.30;77.30;;;;;;5089064;28;20501;-67